sensor_id;sensor_type;location;lat;lon;timestamp;P1;durP1;ratioP1;P2;durP2;ratioP2
6422;SDS011;3244;42.708;23.288;2023-03-01T00:01:36;4.00;;;3.55;;
6422;SDS011;3244;42.708;23.288;2023-03-01T00:04:03;2.97;;;2.78;;
6422;SDS011;3244;42.708;23.288;2023-03-01T00:06:29;3.00;;;2.80;;
6422;SDS011;3244;42.708;23.288;2023-03-01T00:08:56;3.30;;;3.10;;
6422;SDS011;3244;42.708;23.288;2023-03-01T00:11:25;4.53;;;3.78;;
6422;SDS011;3244;42.708;23.288;2023-03-01T00:13:54;3.20;;;3.00;;
6422;SDS011;3244;42.708;23.288;2023-03-01T00:16:24;4.13;;;3.72;;
6422;SDS011;3244;42.708;23.288;2023-03-01T00:18:53;3.65;;;3.35;;
6422;SDS011;3244;42.708;23.288;2023-03-01T00:21:20;3.50;;;3.30;;
6422;SDS011;3244;42.708;23.288;2023-03-01T00:23:47;3.72;;;3.42;;
6422;SDS011;3244;42.708;23.288;2023-03-01T00:26:15;2.65;;;2.50;;
6422;SDS011;3244;42.708;23.288;2023-03-01T00:28:44;2.97;;;2.67;;
6422;SDS011;3244;42.708;23.288;2023-03-01T00:31:13;2.70;;;2.50;;
6422;SDS011;3244;42.708;23.288;2023-03-01T00:33:41;2.50;;;2.35;;
6422;SDS011;3244;42.708;23.288;2023-03-01T00:36:09;2.90;;;2.70;;
6422;SDS011;3244;42.708;23.288;2023-03-01T00:38:37;2.70;;;2.58;;
6422;SDS011;3244;42.708;23.288;2023-03-01T00:41:04;2.33;;;2.22;;
6422;SDS011;3244;42.708;23.288;2023-03-01T00:43:31;2.70;;;2.60;;
6422;SDS011;3244;42.708;23.288;2023-03-01T00:46:03;4.85;;;2.25;;
6422;SDS011;3244;42.708;23.288;2023-03-01T00:48:31;2.92;;;2.38;;
6422;SDS011;3244;42.708;23.288;2023-03-01T00:51:03;2.58;;;2.38;;
6422;SDS011;3244;42.708;23.288;2023-03-01T00:53:31;2.42;;;2.22;;
6422;SDS011;3244;42.708;23.288;2023-03-01T00:55:57;2.03;;;1.92;;
6422;SDS011;3244;42.708;23.288;2023-03-01T00:58:24;2.60;;;2.40;;
6422;SDS011;3244;42.708;23.288;2023-03-01T01:00:51;2.75;;;2.60;;
6422;SDS011;3244;42.708;23.288;2023-03-01T01:03:19;2.35;;;2.25;;
6422;SDS011;3244;42.708;23.288;2023-03-01T01:05:46;1.83;;;1.73;;
6422;SDS011;3244;42.708;23.288;2023-03-01T01:08:13;3.35;;;3.05;;
6422;SDS011;3244;42.708;23.288;2023-03-01T01:10:40;1.48;;;1.48;;
6422;SDS011;3244;42.708;23.288;2023-03-01T01:13:09;2.33;;;2.22;;
6422;SDS011;3244;42.708;23.288;2023-03-01T01:15:35;2.45;;;2.35;;
6422;SDS011;3244;42.708;23.288;2023-03-01T01:18:02;2.45;;;2.35;;
6422;SDS011;3244;42.708;23.288;2023-03-01T01:20:31;2.35;;;2.22;;
6422;SDS011;3244;42.708;23.288;2023-03-01T01:22:58;3.15;;;2.95;;
6422;SDS011;3244;42.708;23.288;2023-03-01T01:25:24;2.25;;;2.15;;
6422;SDS011;3244;42.708;23.288;2023-03-01T01:27:52;18.85;;;2.80;;
6422;SDS011;3244;42.708;23.288;2023-03-01T01:30:19;2.53;;;2.42;;
6422;SDS011;3244;42.708;23.288;2023-03-01T01:32:46;2.30;;;2.20;;
6422;SDS011;3244;42.708;23.288;2023-03-01T01:35:12;2.63;;;2.42;;
6422;SDS011;3244;42.708;23.288;2023-03-01T01:37:40;2.40;;;2.22;;
6422;SDS011;3244;42.708;23.288;2023-03-01T01:40:08;2.80;;;2.70;;
6422;SDS011;3244;42.708;23.288;2023-03-01T01:42:36;2.78;;;2.53;;
6422;SDS011;3244;42.708;23.288;2023-03-01T01:45:24;3.38;;;3.17;;
6422;SDS011;3244;42.708;23.288;2023-03-01T01:47:58;2.53;;;2.42;;
6422;SDS011;3244;42.708;23.288;2023-03-01T01:50:27;2.88;;;2.78;;
6422;SDS011;3244;42.708;23.288;2023-03-01T01:53:04;2.67;;;2.47;;
6422;SDS011;3244;42.708;23.288;2023-03-01T01:55:32;2.60;;;2.50;;
6422;SDS011;3244;42.708;23.288;2023-03-01T01:58:02;2.58;;;2.13;;
6422;SDS011;3244;42.708;23.288;2023-03-01T02:00:32;2.67;;;2.08;;
6422;SDS011;3244;42.708;23.288;2023-03-01T02:02:59;2.60;;;2.50;;
6422;SDS011;3244;42.708;23.288;2023-03-01T02:05:29;3.00;;;2.85;;
6422;SDS011;3244;42.708;23.288;2023-03-01T02:08:01;2.22;;;2.10;;
6422;SDS011;3244;42.708;23.288;2023-03-01T02:10:30;1.92;;;1.83;;
6422;SDS011;3244;42.708;23.288;2023-03-01T02:13:00;1.77;;;1.73;;
6422;SDS011;3244;42.708;23.288;2023-03-01T02:15:31;2.55;;;2.35;;
6422;SDS011;3244;42.708;23.288;2023-03-01T02:17:59;3.35;;;3.15;;
6422;SDS011;3244;42.708;23.288;2023-03-01T02:20:31;2.05;;;1.95;;
6422;SDS011;3244;42.708;23.288;2023-03-01T02:23:01;2.75;;;2.55;;
6422;SDS011;3244;42.708;23.288;2023-03-01T02:25:33;3.53;;;3.22;;
6422;SDS011;3244;42.708;23.288;2023-03-01T02:28:08;2.13;;;2.03;;
6422;SDS011;3244;42.708;23.288;2023-03-01T02:30:38;1.83;;;1.73;;
6422;SDS011;3244;42.708;23.288;2023-03-01T02:33:27;2.00;;;1.90;;
6422;SDS011;3244;42.708;23.288;2023-03-01T02:35:53;1.40;;;1.40;;
6422;SDS011;3244;42.708;23.288;2023-03-01T02:38:21;5.15;;;1.77;;
6422;SDS011;3244;42.708;23.288;2023-03-01T02:40:49;1.20;;;1.20;;
6422;SDS011;3244;42.708;23.288;2023-03-01T02:43:17;1.67;;;1.58;;
6422;SDS011;3244;42.708;23.288;2023-03-01T02:45:49;2.28;;;2.17;;
6422;SDS011;3244;42.708;23.288;2023-03-01T02:48:17;2.90;;;2.70;;
6422;SDS011;3244;42.708;23.288;2023-03-01T02:50:50;2.25;;;2.15;;
6422;SDS011;3244;42.708;23.288;2023-03-01T02:53:32;2.30;;;2.20;;
6422;SDS011;3244;42.708;23.288;2023-03-01T02:56:04;2.35;;;2.20;;
6422;SDS011;3244;42.708;23.288;2023-03-01T02:58:38;2.63;;;2.42;;
6422;SDS011;3244;42.708;23.288;2023-03-01T03:01:11;2.35;;;2.25;;
6422;SDS011;3244;42.708;23.288;2023-03-01T03:03:40;1.73;;;1.63;;
6422;SDS011;3244;42.708;23.288;2023-03-01T03:06:07;2.42;;;2.33;;
6422;SDS011;3244;42.708;23.288;2023-03-01T03:08:34;2.28;;;2.17;;
6422;SDS011;3244;42.708;23.288;2023-03-01T03:11:01;2.47;;;2.20;;
6422;SDS011;3244;42.708;23.288;2023-03-01T03:13:28;2.08;;;1.98;;
6422;SDS011;3244;42.708;23.288;2023-03-01T03:15:55;1.38;;;1.33;;
6422;SDS011;3244;42.708;23.288;2023-03-01T03:18:24;2.05;;;1.95;;
6422;SDS011;3244;42.708;23.288;2023-03-01T03:20:51;2.22;;;2.13;;
6422;SDS011;3244;42.708;23.288;2023-03-01T03:23:19;2.00;;;1.90;;
6422;SDS011;3244;42.708;23.288;2023-03-01T03:25:47;2.28;;;2.17;;
6422;SDS011;3244;42.708;23.288;2023-03-01T03:28:15;2.47;;;2.38;;
6422;SDS011;3244;42.708;23.288;2023-03-01T03:30:42;2.55;;;2.40;;
6422;SDS011;3244;42.708;23.288;2023-03-01T03:33:12;2.45;;;2.35;;
6422;SDS011;3244;42.708;23.288;2023-03-01T03:35:41;2.42;;;2.33;;
6422;SDS011;3244;42.708;23.288;2023-03-01T03:38:11;2.40;;;2.30;;
6422;SDS011;3244;42.708;23.288;2023-03-01T03:40:43;5.13;;;2.55;;
6422;SDS011;3244;42.708;23.288;2023-03-01T03:45:58;2.10;;;2.00;;
6422;SDS011;3244;42.708;23.288;2023-03-01T03:48:25;2.70;;;2.33;;
6422;SDS011;3244;42.708;23.288;2023-03-01T03:50:55;2.63;;;2.53;;
6422;SDS011;3244;42.708;23.288;2023-03-01T03:53:23;3.17;;;2.97;;
6422;SDS011;3244;42.708;23.288;2023-03-01T03:55:51;3.20;;;3.00;;
6422;SDS011;3244;42.708;23.288;2023-03-01T03:58:19;2.58;;;2.47;;
6422;SDS011;3244;42.708;23.288;2023-03-01T04:00:48;6.10;;;2.47;;
6422;SDS011;3244;42.708;23.288;2023-03-01T04:03:17;3.25;;;3.05;;
6422;SDS011;3244;42.708;23.288;2023-03-01T04:05:45;3.47;;;3.25;;
6422;SDS011;3244;42.708;23.288;2023-03-01T04:08:14;2.60;;;2.45;;
6422;SDS011;3244;42.708;23.288;2023-03-01T04:10:42;2.92;;;2.72;;
6422;SDS011;3244;42.708;23.288;2023-03-01T04:13:11;2.47;;;2.35;;
6422;SDS011;3244;42.708;23.288;2023-03-01T04:15:40;2.70;;;2.50;;
6422;SDS011;3244;42.708;23.288;2023-03-01T04:18:08;2.80;;;2.20;;
6422;SDS011;3244;42.708;23.288;2023-03-01T04:20:36;2.55;;;2.45;;
6422;SDS011;3244;42.708;23.288;2023-03-01T04:23:04;2.60;;;2.40;;
6422;SDS011;3244;42.708;23.288;2023-03-01T04:25:45;1.88;;;1.77;;
6422;SDS011;3244;42.708;23.288;2023-03-01T04:28:14;2.78;;;2.58;;
6422;SDS011;3244;42.708;23.288;2023-03-01T04:30:41;3.00;;;2.80;;
6422;SDS011;3244;42.708;23.288;2023-03-01T04:33:09;2.72;;;2.50;;
6422;SDS011;3244;42.708;23.288;2023-03-01T04:35:37;2.60;;;2.40;;
6422;SDS011;3244;42.708;23.288;2023-03-01T04:38:05;2.65;;;2.45;;
6422;SDS011;3244;42.708;23.288;2023-03-01T04:40:32;2.83;;;2.45;;
6422;SDS011;3244;42.708;23.288;2023-03-01T04:43:01;2.30;;;2.20;;
6422;SDS011;3244;42.708;23.288;2023-03-01T04:45:29;2.38;;;2.28;;
6422;SDS011;3244;42.708;23.288;2023-03-01T04:47:55;2.55;;;2.35;;
6422;SDS011;3244;42.708;23.288;2023-03-01T04:50:24;7.80;;;2.63;;
6422;SDS011;3244;42.708;23.288;2023-03-01T04:52:51;2.60;;;2.42;;
6422;SDS011;3244;42.708;23.288;2023-03-01T04:55:18;2.65;;;2.50;;
6422;SDS011;3244;42.708;23.288;2023-03-01T04:57:45;2.85;;;2.65;;
6422;SDS011;3244;42.708;23.288;2023-03-01T05:00:14;4.65;;;2.30;;
6422;SDS011;3244;42.708;23.288;2023-03-01T05:02:48;2.25;;;2.15;;
6422;SDS011;3244;42.708;23.288;2023-03-01T05:05:19;2.53;;;2.42;;
6422;SDS011;3244;42.708;23.288;2023-03-01T05:07:50;3.28;;;2.95;;
6422;SDS011;3244;42.708;23.288;2023-03-01T05:10:18;2.88;;;2.67;;
6422;SDS011;3244;42.708;23.288;2023-03-01T05:12:44;3.15;;;2.85;;
6422;SDS011;3244;42.708;23.288;2023-03-01T05:15:11;2.88;;;2.78;;
6422;SDS011;3244;42.708;23.288;2023-03-01T05:17:40;3.08;;;2.83;;
6422;SDS011;3244;42.708;23.288;2023-03-01T05:20:07;3.75;;;3.45;;
6422;SDS011;3244;42.708;23.288;2023-03-01T05:22:35;3.25;;;3.05;;
6422;SDS011;3244;42.708;23.288;2023-03-01T05:25:03;3.55;;;3.35;;
6422;SDS011;3244;42.708;23.288;2023-03-01T05:27:30;3.90;;;3.53;;
6422;SDS011;3244;42.708;23.288;2023-03-01T05:29:57;3.67;;;3.33;;
6422;SDS011;3244;42.708;23.288;2023-03-01T05:32:24;4.05;;;3.63;;
6422;SDS011;3244;42.708;23.288;2023-03-01T05:34:52;3.47;;;3.28;;
6422;SDS011;3244;42.708;23.288;2023-03-01T05:37:20;4.45;;;3.13;;
6422;SDS011;3244;42.708;23.288;2023-03-01T05:39:47;3.90;;;3.40;;
6422;SDS011;3244;42.708;23.288;2023-03-01T05:42:15;5.55;;;3.97;;
6422;SDS011;3244;42.708;23.288;2023-03-01T05:44:42;4.22;;;3.92;;
6422;SDS011;3244;42.708;23.288;2023-03-01T05:47:08;4.00;;;3.70;;
6422;SDS011;3244;42.708;23.288;2023-03-01T05:49:35;4.90;;;4.32;;
6422;SDS011;3244;42.708;23.288;2023-03-01T05:52:03;3.88;;;3.58;;
6422;SDS011;3244;42.708;23.288;2023-03-01T05:54:30;4.28;;;3.88;;
6422;SDS011;3244;42.708;23.288;2023-03-01T05:56:58;4.25;;;3.95;;
6422;SDS011;3244;42.708;23.288;2023-03-01T05:59:24;3.35;;;3.05;;
6422;SDS011;3244;42.708;23.288;2023-03-01T06:01:51;3.95;;;3.35;;
6422;SDS011;3244;42.708;23.288;2023-03-01T06:04:18;3.08;;;2.78;;
6422;SDS011;3244;42.708;23.288;2023-03-01T06:06:46;3.65;;;3.03;;
6422;SDS011;3244;42.708;23.288;2023-03-01T06:09:14;4.43;;;3.92;;
6422;SDS011;3244;42.708;23.288;2023-03-01T06:11:40;3.85;;;3.55;;
6422;SDS011;3244;42.708;23.288;2023-03-01T06:14:07;3.40;;;3.17;;
6422;SDS011;3244;42.708;23.288;2023-03-01T06:16:35;3.42;;;3.13;;
6422;SDS011;3244;42.708;23.288;2023-03-01T06:19:02;4.95;;;4.28;;
6422;SDS011;3244;42.708;23.288;2023-03-01T06:21:28;4.15;;;3.85;;
6422;SDS011;3244;42.708;23.288;2023-03-01T06:23:55;4.38;;;4.15;;
6422;SDS011;3244;42.708;23.288;2023-03-01T06:26:23;3.97;;;3.50;;
6422;SDS011;3244;42.708;23.288;2023-03-01T06:28:50;3.53;;;3.33;;
6422;SDS011;3244;42.708;23.288;2023-03-01T06:31:17;4.18;;;3.85;;
6422;SDS011;3244;42.708;23.288;2023-03-01T06:33:43;4.82;;;3.97;;
6422;SDS011;3244;42.708;23.288;2023-03-01T06:36:10;3.75;;;3.05;;
6422;SDS011;3244;42.708;23.288;2023-03-01T06:38:37;2.58;;;2.42;;
6422;SDS011;3244;42.708;23.288;2023-03-01T06:41:05;3.30;;;2.95;;
6422;SDS011;3244;42.708;23.288;2023-03-01T06:43:34;2.75;;;2.55;;
6422;SDS011;3244;42.708;23.288;2023-03-01T06:46:03;4.47;;;2.63;;
6422;SDS011;3244;42.708;23.288;2023-03-01T06:48:31;4.32;;;2.97;;
6422;SDS011;3244;42.708;23.288;2023-03-01T06:50:58;3.47;;;3.05;;
6422;SDS011;3244;42.708;23.288;2023-03-01T06:53:25;2.58;;;2.38;;
6422;SDS011;3244;42.708;23.288;2023-03-01T06:55:53;2.97;;;2.70;;
6422;SDS011;3244;42.708;23.288;2023-03-01T06:58:21;3.33;;;3.03;;
6422;SDS011;3244;42.708;23.288;2023-03-01T07:00:49;2.90;;;2.58;;
6422;SDS011;3244;42.708;23.288;2023-03-01T07:03:15;3.35;;;3.13;;
6422;SDS011;3244;42.708;23.288;2023-03-01T07:05:42;6.70;;;2.80;;
6422;SDS011;3244;42.708;23.288;2023-03-01T07:08:09;7.07;;;3.20;;
6422;SDS011;3244;42.708;23.288;2023-03-01T07:10:36;4.88;;;3.35;;
6422;SDS011;3244;42.708;23.288;2023-03-01T07:13:03;6.35;;;3.10;;
6422;SDS011;3244;42.708;23.288;2023-03-01T07:15:31;3.60;;;3.40;;
6422;SDS011;3244;42.708;23.288;2023-03-01T07:18:00;3.78;;;3.50;;
6422;SDS011;3244;42.708;23.288;2023-03-01T07:20:27;3.83;;;3.33;;
6422;SDS011;3244;42.708;23.288;2023-03-01T07:22:54;5.25;;;2.72;;
6422;SDS011;3244;42.708;23.288;2023-03-01T07:25:23;3.33;;;3.10;;
6422;SDS011;3244;42.708;23.288;2023-03-01T07:27:50;3.47;;;2.85;;
6422;SDS011;3244;42.708;23.288;2023-03-01T07:30:18;3.80;;;3.10;;
6422;SDS011;3244;42.708;23.288;2023-03-01T07:32:45;3.38;;;3.08;;
6422;SDS011;3244;42.708;23.288;2023-03-01T07:35:13;3.20;;;2.90;;
6422;SDS011;3244;42.708;23.288;2023-03-01T07:37:40;4.28;;;3.78;;
6422;SDS011;3244;42.708;23.288;2023-03-01T07:40:08;2.13;;;2.03;;
6422;SDS011;3244;42.708;23.288;2023-03-01T07:42:35;5.90;;;3.05;;
6422;SDS011;3244;42.708;23.288;2023-03-01T07:45:02;4.78;;;2.85;;
6422;SDS011;3244;42.708;23.288;2023-03-01T07:47:29;5.03;;;3.25;;
6422;SDS011;3244;42.708;23.288;2023-03-01T07:49:56;4.20;;;2.92;;
6422;SDS011;3244;42.708;23.288;2023-03-01T07:52:24;3.60;;;2.97;;
6422;SDS011;3244;42.708;23.288;2023-03-01T07:54:51;4.20;;;2.63;;
6422;SDS011;3244;42.708;23.288;2023-03-01T07:57:18;3.65;;;2.95;;
6422;SDS011;3244;42.708;23.288;2023-03-01T07:59:45;5.38;;;2.53;;
6422;SDS011;3244;42.708;23.288;2023-03-01T08:02:11;2.63;;;2.42;;
6422;SDS011;3244;42.708;23.288;2023-03-01T08:04:40;2.90;;;2.60;;
6422;SDS011;3244;42.708;23.288;2023-03-01T08:07:07;3.53;;;2.40;;
6422;SDS011;3244;42.708;23.288;2023-03-01T08:09:35;3.45;;;3.15;;
6422;SDS011;3244;42.708;23.288;2023-03-01T08:12:02;3.17;;;2.60;;
6422;SDS011;3244;42.708;23.288;2023-03-01T08:14:29;4.15;;;2.90;;
6422;SDS011;3244;42.708;23.288;2023-03-01T08:16:56;3.60;;;2.72;;
6422;SDS011;3244;42.708;23.288;2023-03-01T08:19:23;4.10;;;3.80;;
6422;SDS011;3244;42.708;23.288;2023-03-01T08:21:50;3.47;;;2.53;;
6422;SDS011;3244;42.708;23.288;2023-03-01T08:24:17;7.90;;;2.47;;
6422;SDS011;3244;42.708;23.288;2023-03-01T08:26:45;2.65;;;2.25;;
6422;SDS011;3244;42.708;23.288;2023-03-01T08:29:12;2.67;;;2.47;;
6422;SDS011;3244;42.708;23.288;2023-03-01T08:31:39;8.18;;;2.15;;
6422;SDS011;3244;42.708;23.288;2023-03-01T08:34:07;2.70;;;2.58;;
6422;SDS011;3244;42.708;23.288;2023-03-01T08:36:36;2.53;;;2.35;;
6422;SDS011;3244;42.708;23.288;2023-03-01T08:39:04;7.95;;;2.20;;
6422;SDS011;3244;42.708;23.288;2023-03-01T08:41:32;2.85;;;2.65;;
6422;SDS011;3244;42.708;23.288;2023-03-01T08:44:00;2.20;;;2.10;;
6422;SDS011;3244;42.708;23.288;2023-03-01T08:46:27;2.40;;;2.30;;
6422;SDS011;3244;42.708;23.288;2023-03-01T08:48:55;2.88;;;2.67;;
6422;SDS011;3244;42.708;23.288;2023-03-01T08:51:22;6.97;;;3.13;;
6422;SDS011;3244;42.708;23.288;2023-03-01T08:53:50;4.55;;;3.10;;
6422;SDS011;3244;42.708;23.288;2023-03-01T08:56:17;3.33;;;3.15;;
6422;SDS011;3244;42.708;23.288;2023-03-01T08:58:44;2.40;;;2.30;;
6422;SDS011;3244;42.708;23.288;2023-03-01T09:01:14;2.42;;;2.22;;
6422;SDS011;3244;42.708;23.288;2023-03-01T09:03:42;2.90;;;2.70;;
6422;SDS011;3244;42.708;23.288;2023-03-01T09:06:09;2.30;;;2.20;;
6422;SDS011;3244;42.708;23.288;2023-03-01T09:08:37;2.47;;;2.28;;
6422;SDS011;3244;42.708;23.288;2023-03-01T09:11:05;4.95;;;2.47;;
6422;SDS011;3244;42.708;23.288;2023-03-01T09:13:33;2.72;;;2.55;;
6422;SDS011;3244;42.708;23.288;2023-03-01T09:16:00;2.53;;;2.22;;
6422;SDS011;3244;42.708;23.288;2023-03-01T09:18:29;2.40;;;2.30;;
6422;SDS011;3244;42.708;23.288;2023-03-01T09:21:00;2.40;;;2.30;;
6422;SDS011;3244;42.708;23.288;2023-03-01T09:23:32;4.40;;;2.53;;
6422;SDS011;3244;42.708;23.288;2023-03-01T09:25:59;1.65;;;1.55;;
6422;SDS011;3244;42.708;23.288;2023-03-01T09:28:26;2.15;;;2.05;;
6422;SDS011;3244;42.708;23.288;2023-03-01T09:30:53;1.73;;;1.63;;
6422;SDS011;3244;42.708;23.288;2023-03-01T09:33:20;2.80;;;1.77;;
6422;SDS011;3244;42.708;23.288;2023-03-01T09:35:48;4.25;;;2.60;;
6422;SDS011;3244;42.708;23.288;2023-03-01T09:38:15;2.15;;;2.05;;
6422;SDS011;3244;42.708;23.288;2023-03-01T09:40:42;1.90;;;1.80;;
6422;SDS011;3244;42.708;23.288;2023-03-01T09:43:14;2.10;;;2.00;;
6422;SDS011;3244;42.708;23.288;2023-03-01T09:45:46;2.22;;;2.08;;
6422;SDS011;3244;42.708;23.288;2023-03-01T09:48:16;2.15;;;2.05;;
6422;SDS011;3244;42.708;23.288;2023-03-01T09:50:48;1.92;;;1.83;;
6422;SDS011;3244;42.708;23.288;2023-03-01T09:53:16;2.55;;;2.40;;
6422;SDS011;3244;42.708;23.288;2023-03-01T09:55:46;2.40;;;1.90;;
6422;SDS011;3244;42.708;23.288;2023-03-01T09:58:35;1.60;;;1.50;;
6422;SDS011;3244;42.708;23.288;2023-03-01T10:01:11;2.03;;;1.92;;
6422;SDS011;3244;42.708;23.288;2023-03-01T10:03:57;1.60;;;1.50;;
6422;SDS011;3244;42.708;23.288;2023-03-01T10:06:37;2.58;;;1.88;;
6422;SDS011;3244;42.708;23.288;2023-03-01T10:09:10;1.60;;;1.50;;
6422;SDS011;3244;42.708;23.288;2023-03-01T10:11:41;1.35;;;1.25;;
6422;SDS011;3244;42.708;23.288;2023-03-01T10:14:15;1.10;;;1.10;;
6422;SDS011;3244;42.708;23.288;2023-03-01T10:16:48;1.17;;;1.08;;
6422;SDS011;3244;42.708;23.288;2023-03-01T10:19:20;3.38;;;1.83;;
6422;SDS011;3244;42.708;23.288;2023-03-01T10:21:52;7.28;;;2.03;;
6422;SDS011;3244;42.708;23.288;2023-03-01T10:24:20;3.65;;;1.60;;
6422;SDS011;3244;42.708;23.288;2023-03-01T10:26:48;3.00;;;2.80;;
6422;SDS011;3244;42.708;23.288;2023-03-01T10:29:23;3.88;;;1.95;;
6422;SDS011;3244;42.708;23.288;2023-03-01T10:31:56;2.50;;;2.35;;
6422;SDS011;3244;42.708;23.288;2023-03-01T10:34:26;1.88;;;1.77;;
6422;SDS011;3244;42.708;23.288;2023-03-01T10:36:58;2.05;;;1.45;;
6422;SDS011;3244;42.708;23.288;2023-03-01T10:39:34;2.40;;;2.20;;
6422;SDS011;3244;42.708;23.288;2023-03-01T10:42:02;1.42;;;1.33;;
6422;SDS011;3244;42.708;23.288;2023-03-01T10:44:38;2.00;;;1.63;;
6422;SDS011;3244;42.708;23.288;2023-03-01T10:47:12;1.80;;;1.67;;
6422;SDS011;3244;42.708;23.288;2023-03-01T10:49:49;1.70;;;1.60;;
6422;SDS011;3244;42.708;23.288;2023-03-01T10:52:20;2.00;;;1.90;;
6422;SDS011;3244;42.708;23.288;2023-03-01T10:54:53;2.45;;;1.30;;
6422;SDS011;3244;42.708;23.288;2023-03-01T10:57:28;2.00;;;1.90;;
6422;SDS011;3244;42.708;23.288;2023-03-01T11:00:14;1.88;;;1.73;;
6422;SDS011;3244;42.708;23.288;2023-03-01T11:02:47;1.60;;;1.50;;
6422;SDS011;3244;42.708;23.288;2023-03-01T11:05:17;1.35;;;1.25;;
6422;SDS011;3244;42.708;23.288;2023-03-01T11:07:50;1.13;;;1.13;;
6422;SDS011;3244;42.708;23.288;2023-03-01T11:10:19;1.35;;;1.30;;
6422;SDS011;3244;42.708;23.288;2023-03-01T11:12:47;1.55;;;1.17;;
6422;SDS011;3244;42.708;23.288;2023-03-01T11:15:25;1.30;;;1.20;;
6422;SDS011;3244;42.708;23.288;2023-03-01T11:17:53;1.10;;;1.10;;
6422;SDS011;3244;42.708;23.288;2023-03-01T11:20:24;1.45;;;1.30;;
6422;SDS011;3244;42.708;23.288;2023-03-01T11:22:58;1.65;;;1.55;;
6422;SDS011;3244;42.708;23.288;2023-03-01T11:25:29;1.35;;;1.30;;
6422;SDS011;3244;42.708;23.288;2023-03-01T11:27:59;1.40;;;1.30;;
6422;SDS011;3244;42.708;23.288;2023-03-01T11:30:31;1.50;;;1.40;;
6422;SDS011;3244;42.708;23.288;2023-03-01T11:33:13;2.17;;;1.42;;
6422;SDS011;3244;42.708;23.288;2023-03-01T11:35:47;1.92;;;1.77;;
6422;SDS011;3244;42.708;23.288;2023-03-01T11:38:22;1.52;;;1.40;;
6422;SDS011;3244;42.708;23.288;2023-03-01T11:40:52;1.27;;;1.20;;
6422;SDS011;3244;42.708;23.288;2023-03-01T11:43:29;1.85;;;1.33;;
6422;SDS011;3244;42.708;23.288;2023-03-01T11:46:11;5.22;;;1.50;;
6422;SDS011;3244;42.708;23.288;2023-03-01T11:49:06;1.88;;;1.10;;
6422;SDS011;3244;42.708;23.288;2023-03-01T11:51:47;2.75;;;1.58;;
6422;SDS011;3244;42.708;23.288;2023-03-01T11:54:25;6.93;;;0.95;;
6422;SDS011;3244;42.708;23.288;2023-03-01T11:57:01;1.85;;;1.60;;
6422;SDS011;3244;42.708;23.288;2023-03-01T11:59:54;1.67;;;1.58;;
6422;SDS011;3244;42.708;23.288;2023-03-01T12:02:40;1.73;;;1.63;;
6422;SDS011;3244;42.708;23.288;2023-03-01T12:08:38;3.50;;;1.63;;
6422;SDS011;3244;42.708;23.288;2023-03-01T12:11:12;1.52;;;1.42;;
6422;SDS011;3244;42.708;23.288;2023-03-01T12:14:02;1.92;;;1.83;;
6422;SDS011;3244;42.708;23.288;2023-03-01T12:17:03;1.40;;;1.30;;
6422;SDS011;3244;42.708;23.288;2023-03-01T12:19:45;1.65;;;1.55;;
6422;SDS011;3244;42.708;23.288;2023-03-01T12:22:27;2.53;;;1.80;;
6422;SDS011;3244;42.708;23.288;2023-03-01T12:25:03;2.03;;;1.92;;
6422;SDS011;3244;42.708;23.288;2023-03-01T12:28:04;2.53;;;2.20;;
6422;SDS011;3244;42.708;23.288;2023-03-01T12:30:48;3.25;;;2.03;;
6422;SDS011;3244;42.708;23.288;2023-03-01T12:33:29;5.25;;;2.60;;
6422;SDS011;3244;42.708;23.288;2023-03-01T12:36:10;2.53;;;2.40;;
6422;SDS011;3244;42.708;23.288;2023-03-01T12:38:56;2.45;;;2.28;;
6422;SDS011;3244;42.708;23.288;2023-03-01T12:41:39;2.30;;;2.00;;
6422;SDS011;3244;42.708;23.288;2023-03-01T12:44:13;2.55;;;2.40;;
6422;SDS011;3244;42.708;23.288;2023-03-01T12:47:11;2.60;;;2.40;;
6422;SDS011;3244;42.708;23.288;2023-03-01T12:49:47;2.25;;;2.05;;
6422;SDS011;3244;42.708;23.288;2023-03-01T12:52:19;2.67;;;2.47;;
6422;SDS011;3244;42.708;23.288;2023-03-01T12:54:54;2.88;;;2.67;;
6422;SDS011;3244;42.708;23.288;2023-03-01T12:57:29;2.28;;;2.17;;
6422;SDS011;3244;42.708;23.288;2023-03-01T13:00:05;2.60;;;2.50;;
6422;SDS011;3244;42.708;23.288;2023-03-01T13:02:49;4.43;;;2.38;;
6422;SDS011;3244;42.708;23.288;2023-03-01T13:05:24;6.38;;;2.20;;
6422;SDS011;3244;42.708;23.288;2023-03-01T13:08:01;12.13;;;2.40;;
6422;SDS011;3244;42.708;23.288;2023-03-01T13:10:40;2.53;;;2.38;;
6422;SDS011;3244;42.708;23.288;2023-03-01T13:13:13;2.00;;;1.90;;
6422;SDS011;3244;42.708;23.288;2023-03-01T13:15:46;4.38;;;2.20;;
6422;SDS011;3244;42.708;23.288;2023-03-01T13:18:30;3.10;;;2.08;;
6422;SDS011;3244;42.708;23.288;2023-03-01T13:20:59;2.95;;;2.75;;
6422;SDS011;3244;42.708;23.288;2023-03-01T13:23:28;43.70;;;6.38;;
6422;SDS011;3244;42.708;23.288;2023-03-01T13:26:02;12.75;;;3.47;;
6422;SDS011;3244;42.708;23.288;2023-03-01T13:28:38;4.55;;;2.28;;
6422;SDS011;3244;42.708;23.288;2023-03-01T13:31:08;3.22;;;3.00;;
6422;SDS011;3244;42.708;23.288;2023-03-01T13:33:40;3.60;;;2.80;;
6422;SDS011;3244;42.708;23.288;2023-03-01T13:36:08;3.15;;;2.95;;
6422;SDS011;3244;42.708;23.288;2023-03-01T13:38:48;2.65;;;2.50;;
6422;SDS011;3244;42.708;23.288;2023-03-01T13:44:20;3.75;;;2.95;;
6422;SDS011;3244;42.708;23.288;2023-03-01T13:46:53;4.63;;;3.08;;
6422;SDS011;3244;42.708;23.288;2023-03-01T13:49:23;2.92;;;2.70;;
6422;SDS011;3244;42.708;23.288;2023-03-01T13:51:53;3.05;;;2.80;;
6422;SDS011;3244;42.708;23.288;2023-03-01T13:54:23;6.22;;;3.00;;
6422;SDS011;3244;42.708;23.288;2023-03-01T13:56:52;3.30;;;3.10;;
6422;SDS011;3244;42.708;23.288;2023-03-01T13:59:21;6.43;;;2.13;;
6422;SDS011;3244;42.708;23.288;2023-03-01T14:01:56;8.15;;;2.95;;
6422;SDS011;3244;42.708;23.288;2023-03-01T14:04:24;6.32;;;2.78;;
6422;SDS011;3244;42.708;23.288;2023-03-01T14:07:08;3.78;;;2.50;;
6422;SDS011;3244;42.708;23.288;2023-03-01T14:09:36;3.25;;;2.92;;
6422;SDS011;3244;42.708;23.288;2023-03-01T14:12:10;3.13;;;2.92;;
6422;SDS011;3244;42.708;23.288;2023-03-01T14:14:52;3.47;;;3.17;;
6422;SDS011;3244;42.708;23.288;2023-03-01T14:20:17;3.13;;;2.92;;
6422;SDS011;3244;42.708;23.288;2023-03-01T14:22:46;3.28;;;3.05;;
6422;SDS011;3244;42.708;23.288;2023-03-01T14:25:22;3.58;;;3.15;;
6422;SDS011;3244;42.708;23.288;2023-03-01T14:27:51;3.20;;;2.88;;
6422;SDS011;3244;42.708;23.288;2023-03-01T14:30:22;2.47;;;2.28;;
6422;SDS011;3244;42.708;23.288;2023-03-01T14:32:53;2.50;;;2.30;;
6422;SDS011;3244;42.708;23.288;2023-03-01T14:35:23;4.18;;;3.10;;
6422;SDS011;3244;42.708;23.288;2023-03-01T14:37:51;6.47;;;3.15;;
6422;SDS011;3244;42.708;23.288;2023-03-01T14:40:22;3.47;;;3.17;;
6422;SDS011;3244;42.708;23.288;2023-03-01T14:42:51;2.83;;;2.63;;
6422;SDS011;3244;42.708;23.288;2023-03-01T14:45:19;4.47;;;2.50;;
6422;SDS011;3244;42.708;23.288;2023-03-01T14:47:46;3.95;;;2.95;;
6422;SDS011;3244;42.708;23.288;2023-03-01T14:50:21;3.80;;;3.05;;
6422;SDS011;3244;42.708;23.288;2023-03-01T14:52:52;6.55;;;3.03;;
6422;SDS011;3244;42.708;23.288;2023-03-01T14:55:21;2.83;;;2.40;;
6422;SDS011;3244;42.708;23.288;2023-03-01T14:57:53;3.28;;;2.50;;
6422;SDS011;3244;42.708;23.288;2023-03-01T15:00:21;5.45;;;2.42;;
6422;SDS011;3244;42.708;23.288;2023-03-01T15:02:51;3.05;;;2.53;;
6422;SDS011;3244;42.708;23.288;2023-03-01T15:05:23;3.97;;;2.55;;
6422;SDS011;3244;42.708;23.288;2023-03-01T15:07:54;2.78;;;2.42;;
6422;SDS011;3244;42.708;23.288;2023-03-01T15:10:23;3.65;;;2.65;;
6422;SDS011;3244;42.708;23.288;2023-03-01T15:12:52;4.50;;;3.15;;
6422;SDS011;3244;42.708;23.288;2023-03-01T15:15:32;7.00;;;3.10;;
6422;SDS011;3244;42.708;23.288;2023-03-01T15:18:02;6.18;;;3.50;;
6422;SDS011;3244;42.708;23.288;2023-03-01T15:20:33;4.07;;;3.55;;
6422;SDS011;3244;42.708;23.288;2023-03-01T15:23:03;4.97;;;3.88;;
6422;SDS011;3244;42.708;23.288;2023-03-01T15:25:31;4.07;;;3.28;;
6422;SDS011;3244;42.708;23.288;2023-03-01T15:27:59;11.75;;;3.08;;
6422;SDS011;3244;42.708;23.288;2023-03-01T15:30:29;3.30;;;3.00;;
6422;SDS011;3244;42.708;23.288;2023-03-01T15:33:27;3.22;;;2.70;;